sensor_id;sensor_type;location;lat;lon;timestamp;P1;durP1;ratioP1;P2;durP2;ratioP2
17488;SDS011;8861;52.644;4.734;2023-06-14T00:01:07;5.17;;;3.70;;
17488;SDS011;8861;52.644;4.734;2023-06-14T00:03:34;5.33;;;3.77;;
17488;SDS011;8861;52.644;4.734;2023-06-14T00:06:01;5.80;;;3.70;;
17488;SDS011;8861;52.644;4.734;2023-06-14T00:08:28;8.23;;;4.10;;
17488;SDS011;8861;52.644;4.734;2023-06-14T00:10:56;6.30;;;3.83;;
17488;SDS011;8861;52.644;4.734;2023-06-14T00:13:23;5.17;;;3.63;;
17488;SDS011;8861;52.644;4.734;2023-06-14T00:15:50;5.43;;;3.90;;
17488;SDS011;8861;52.644;4.734;2023-06-14T00:18:19;5.20;;;3.50;;
17488;SDS011;8861;52.644;4.734;2023-06-14T00:20:49;5.60;;;3.97;;
17488;SDS011;8861;52.644;4.734;2023-06-14T00:23:17;5.57;;;3.63;;
17488;SDS011;8861;52.644;4.734;2023-06-14T00:25:44;5.23;;;3.70;;
17488;SDS011;8861;52.644;4.734;2023-06-14T00:28:12;5.53;;;3.60;;
17488;SDS011;8861;52.644;4.734;2023-06-14T00:30:39;7.17;;;4.00;;
17488;SDS011;8861;52.644;4.734;2023-06-14T00:33:09;7.73;;;3.93;;
17488;SDS011;8861;52.644;4.734;2023-06-14T00:35:36;5.47;;;3.50;;
17488;SDS011;8861;52.644;4.734;2023-06-14T00:38:02;6.70;;;3.50;;
17488;SDS011;8861;52.644;4.734;2023-06-14T00:40:30;5.57;;;3.70;;
17488;SDS011;8861;52.644;4.734;2023-06-14T00:42:56;5.77;;;3.47;;
17488;SDS011;8861;52.644;4.734;2023-06-14T00:45:25;7.20;;;3.80;;
17488;SDS011;8861;52.644;4.734;2023-06-14T00:47:52;6.80;;;3.50;;
17488;SDS011;8861;52.644;4.734;2023-06-14T00:50:20;6.17;;;3.53;;
17488;SDS011;8861;52.644;4.734;2023-06-14T00:52:48;4.67;;;3.63;;
17488;SDS011;8861;52.644;4.734;2023-06-14T00:55:15;4.43;;;3.53;;
17488;SDS011;8861;52.644;4.734;2023-06-14T00:57:42;4.87;;;3.30;;
17488;SDS011;8861;52.644;4.734;2023-06-14T01:00:11;4.90;;;3.60;;
17488;SDS011;8861;52.644;4.734;2023-06-14T01:02:40;4.70;;;3.40;;
17488;SDS011;8861;52.644;4.734;2023-06-14T01:05:07;3.77;;;3.33;;
17488;SDS011;8861;52.644;4.734;2023-06-14T01:07:41;6.10;;;3.20;;
17488;SDS011;8861;52.644;4.734;2023-06-14T01:10:20;9.43;;;3.47;;
17488;SDS011;8861;52.644;4.734;2023-06-14T01:12:58;5.30;;;3.13;;
17488;SDS011;8861;52.644;4.734;2023-06-14T01:15:31;5.13;;;3.33;;
17488;SDS011;8861;52.644;4.734;2023-06-14T01:17:59;6.50;;;3.50;;
17488;SDS011;8861;52.644;4.734;2023-06-14T01:20:29;5.13;;;3.57;;
17488;SDS011;8861;52.644;4.734;2023-06-14T01:22:59;6.83;;;3.30;;
17488;SDS011;8861;52.644;4.734;2023-06-14T01:25:26;3.70;;;3.40;;
17488;SDS011;8861;52.644;4.734;2023-06-14T01:27:54;3.97;;;3.23;;
17488;SDS011;8861;52.644;4.734;2023-06-14T01:30:23;4.97;;;3.40;;
17488;SDS011;8861;52.644;4.734;2023-06-14T01:32:51;5.60;;;3.33;;
17488;SDS011;8861;52.644;4.734;2023-06-14T01:35:19;4.93;;;3.50;;
17488;SDS011;8861;52.644;4.734;2023-06-14T01:37:47;6.07;;;3.40;;
17488;SDS011;8861;52.644;4.734;2023-06-14T01:40:15;6.43;;;3.23;;
17488;SDS011;8861;52.644;4.734;2023-06-14T01:42:45;5.67;;;3.23;;
17488;SDS011;8861;52.644;4.734;2023-06-14T01:45:13;6.03;;;3.20;;
17488;SDS011;8861;52.644;4.734;2023-06-14T01:47:41;6.53;;;3.60;;
17488;SDS011;8861;52.644;4.734;2023-06-14T01:50:10;5.73;;;3.00;;
17488;SDS011;8861;52.644;4.734;2023-06-14T01:52:37;6.03;;;3.27;;
17488;SDS011;8861;52.644;4.734;2023-06-14T01:55:04;4.97;;;2.97;;
17488;SDS011;8861;52.644;4.734;2023-06-14T01:57:34;4.47;;;3.33;;
17488;SDS011;8861;52.644;4.734;2023-06-14T02:00:01;5.43;;;3.40;;
17488;SDS011;8861;52.644;4.734;2023-06-14T02:02:29;5.03;;;3.23;;
17488;SDS011;8861;52.644;4.734;2023-06-14T02:04:56;5.33;;;3.23;;
17488;SDS011;8861;52.644;4.734;2023-06-14T02:07:23;5.17;;;3.30;;
17488;SDS011;8861;52.644;4.734;2023-06-14T02:09:50;6.57;;;3.13;;
17488;SDS011;8861;52.644;4.734;2023-06-14T02:12:17;5.93;;;3.03;;
17488;SDS011;8861;52.644;4.734;2023-06-14T02:14:46;5.57;;;3.53;;
17488;SDS011;8861;52.644;4.734;2023-06-14T02:17:13;4.77;;;3.37;;
17488;SDS011;8861;52.644;4.734;2023-06-14T02:19:41;4.47;;;3.23;;
17488;SDS011;8861;52.644;4.734;2023-06-14T02:22:08;5.93;;;3.10;;
17488;SDS011;8861;52.644;4.734;2023-06-14T02:24:35;4.63;;;3.13;;
17488;SDS011;8861;52.644;4.734;2023-06-14T02:27:02;5.80;;;3.23;;
17488;SDS011;8861;52.644;4.734;2023-06-14T02:29:29;6.77;;;3.17;;
17488;SDS011;8861;52.644;4.734;2023-06-14T02:31:57;4.93;;;3.13;;
17488;SDS011;8861;52.644;4.734;2023-06-14T02:34:24;5.37;;;3.10;;
17488;SDS011;8861;52.644;4.734;2023-06-14T02:36:51;5.20;;;3.10;;
17488;SDS011;8861;52.644;4.734;2023-06-14T02:39:18;4.83;;;3.40;;
17488;SDS011;8861;52.644;4.734;2023-06-14T02:41:48;5.27;;;3.20;;
17488;SDS011;8861;52.644;4.734;2023-06-14T02:44:15;5.73;;;3.20;;
17488;SDS011;8861;52.644;4.734;2023-06-14T02:46:44;5.17;;;3.23;;
17488;SDS011;8861;52.644;4.734;2023-06-14T02:49:12;5.77;;;3.07;;
17488;SDS011;8861;52.644;4.734;2023-06-14T02:51:39;6.83;;;3.23;;
17488;SDS011;8861;52.644;4.734;2023-06-14T02:54:06;6.67;;;3.23;;
17488;SDS011;8861;52.644;4.734;2023-06-14T02:56:33;7.80;;;3.60;;
17488;SDS011;8861;52.644;4.734;2023-06-14T02:59:01;4.77;;;3.20;;
17488;SDS011;8861;52.644;4.734;2023-06-14T03:01:27;5.07;;;3.20;;
17488;SDS011;8861;52.644;4.734;2023-06-14T03:03:59;4.33;;;2.83;;
17488;SDS011;8861;52.644;4.734;2023-06-14T03:06:29;5.47;;;2.80;;
17488;SDS011;8861;52.644;4.734;2023-06-14T03:08:56;4.80;;;3.10;;
17488;SDS011;8861;52.644;4.734;2023-06-14T03:11:26;5.47;;;3.10;;
17488;SDS011;8861;52.644;4.734;2023-06-14T03:13:53;7.13;;;3.47;;
17488;SDS011;8861;52.644;4.734;2023-06-14T03:16:20;4.40;;;3.10;;
17488;SDS011;8861;52.644;4.734;2023-06-14T03:18:49;4.63;;;3.00;;
17488;SDS011;8861;52.644;4.734;2023-06-14T03:21:16;5.70;;;3.30;;
17488;SDS011;8861;52.644;4.734;2023-06-14T03:23:44;4.20;;;3.33;;
17488;SDS011;8861;52.644;4.734;2023-06-14T03:26:11;3.90;;;2.77;;
17488;SDS011;8861;52.644;4.734;2023-06-14T03:28:40;4.13;;;2.93;;
17488;SDS011;8861;52.644;4.734;2023-06-14T03:31:07;5.47;;;3.40;;
17488;SDS011;8861;52.644;4.734;2023-06-14T03:33:34;4.93;;;3.20;;
17488;SDS011;8861;52.644;4.734;2023-06-14T03:36:01;3.60;;;2.90;;
17488;SDS011;8861;52.644;4.734;2023-06-14T03:38:29;4.27;;;3.23;;
17488;SDS011;8861;52.644;4.734;2023-06-14T03:40:58;5.67;;;3.10;;
17488;SDS011;8861;52.644;4.734;2023-06-14T03:43:25;3.97;;;3.03;;
17488;SDS011;8861;52.644;4.734;2023-06-14T03:45:52;4.47;;;3.17;;
17488;SDS011;8861;52.644;4.734;2023-06-14T03:48:18;4.37;;;3.27;;
17488;SDS011;8861;52.644;4.734;2023-06-14T03:50:45;5.37;;;2.97;;
17488;SDS011;8861;52.644;4.734;2023-06-14T03:53:12;6.47;;;3.00;;
17488;SDS011;8861;52.644;4.734;2023-06-14T03:55:39;5.13;;;3.37;;
17488;SDS011;8861;52.644;4.734;2023-06-14T03:58:08;3.47;;;3.07;;
17488;SDS011;8861;52.644;4.734;2023-06-14T04:00:35;3.90;;;3.20;;
17488;SDS011;8861;52.644;4.734;2023-06-14T04:03:03;4.90;;;3.10;;
17488;SDS011;8861;52.644;4.734;2023-06-14T04:05:30;4.20;;;2.77;;
17488;SDS011;8861;52.644;4.734;2023-06-14T04:07:57;6.00;;;3.13;;
17488;SDS011;8861;52.644;4.734;2023-06-14T04:10:25;5.30;;;3.00;;
17488;SDS011;8861;52.644;4.734;2023-06-14T04:12:53;3.93;;;2.93;;
17488;SDS011;8861;52.644;4.734;2023-06-14T04:15:21;4.33;;;3.00;;
17488;SDS011;8861;52.644;4.734;2023-06-14T04:17:48;5.93;;;3.13;;
17488;SDS011;8861;52.644;4.734;2023-06-14T04:20:15;4.63;;;3.13;;
17488;SDS011;8861;52.644;4.734;2023-06-14T04:22:43;3.50;;;2.83;;
17488;SDS011;8861;52.644;4.734;2023-06-14T04:25:09;4.97;;;2.90;;
17488;SDS011;8861;52.644;4.734;2023-06-14T04:27:37;4.27;;;2.90;;
17488;SDS011;8861;52.644;4.734;2023-06-14T04:30:04;5.17;;;3.10;;
17488;SDS011;8861;52.644;4.734;2023-06-14T04:32:33;4.00;;;2.80;;
17488;SDS011;8861;52.644;4.734;2023-06-14T04:35:03;4.90;;;2.93;;
17488;SDS011;8861;52.644;4.734;2023-06-14T04:37:31;5.13;;;3.07;;
17488;SDS011;8861;52.644;4.734;2023-06-14T04:39:58;5.53;;;3.20;;
17488;SDS011;8861;52.644;4.734;2023-06-14T04:42:25;4.40;;;2.60;;
17488;SDS011;8861;52.644;4.734;2023-06-14T04:44:56;3.80;;;3.00;;
17488;SDS011;8861;52.644;4.734;2023-06-14T04:47:23;4.80;;;3.10;;
17488;SDS011;8861;52.644;4.734;2023-06-14T04:49:56;3.90;;;3.03;;
17488;SDS011;8861;52.644;4.734;2023-06-14T04:52:25;5.20;;;3.00;;
17488;SDS011;8861;52.644;4.734;2023-06-14T04:54:54;6.27;;;3.30;;
17488;SDS011;8861;52.644;4.734;2023-06-14T04:57:22;4.20;;;2.90;;
17488;SDS011;8861;52.644;4.734;2023-06-14T04:59:50;4.43;;;2.90;;
17488;SDS011;8861;52.644;4.734;2023-06-14T05:02:20;3.10;;;2.80;;
17488;SDS011;8861;52.644;4.734;2023-06-14T05:04:48;3.10;;;2.80;;
17488;SDS011;8861;52.644;4.734;2023-06-14T05:07:17;5.50;;;2.90;;
17488;SDS011;8861;52.644;4.734;2023-06-14T05:09:45;3.70;;;3.03;;
17488;SDS011;8861;52.644;4.734;2023-06-14T05:12:12;4.53;;;2.97;;
17488;SDS011;8861;52.644;4.734;2023-06-14T05:14:40;5.13;;;2.90;;
17488;SDS011;8861;52.644;4.734;2023-06-14T05:17:06;4.53;;;3.00;;
17488;SDS011;8861;52.644;4.734;2023-06-14T05:19:34;4.60;;;3.00;;
17488;SDS011;8861;52.644;4.734;2023-06-14T05:22:01;4.80;;;3.00;;
17488;SDS011;8861;52.644;4.734;2023-06-14T05:24:30;5.37;;;3.00;;
17488;SDS011;8861;52.644;4.734;2023-06-14T05:26:57;3.47;;;2.67;;
17488;SDS011;8861;52.644;4.734;2023-06-14T05:29:24;3.93;;;2.87;;
17488;SDS011;8861;52.644;4.734;2023-06-14T05:31:52;5.77;;;3.17;;
17488;SDS011;8861;52.644;4.734;2023-06-14T05:34:19;6.03;;;3.03;;
17488;SDS011;8861;52.644;4.734;2023-06-14T05:36:46;3.70;;;3.20;;
17488;SDS011;8861;52.644;4.734;2023-06-14T05:39:13;5.70;;;3.07;;
17488;SDS011;8861;52.644;4.734;2023-06-14T05:41:41;6.17;;;3.10;;
17488;SDS011;8861;52.644;4.734;2023-06-14T05:44:08;4.67;;;3.00;;
17488;SDS011;8861;52.644;4.734;2023-06-14T05:46:35;3.37;;;3.00;;
17488;SDS011;8861;52.644;4.734;2023-06-14T05:49:05;5.27;;;3.20;;
17488;SDS011;8861;52.644;4.734;2023-06-14T05:51:31;5.43;;;3.20;;
17488;SDS011;8861;52.644;4.734;2023-06-14T05:53:59;4.27;;;3.17;;
17488;SDS011;8861;52.644;4.734;2023-06-14T05:56:26;5.03;;;3.03;;
17488;SDS011;8861;52.644;4.734;2023-06-14T05:58:54;4.27;;;3.20;;
17488;SDS011;8861;52.644;4.734;2023-06-14T06:01:21;4.47;;;3.10;;
17488;SDS011;8861;52.644;4.734;2023-06-14T06:03:48;6.57;;;3.17;;
17488;SDS011;8861;52.644;4.734;2023-06-14T06:06:15;3.80;;;3.20;;
17488;SDS011;8861;52.644;4.734;2023-06-14T06:08:42;4.43;;;3.37;;
17488;SDS011;8861;52.644;4.734;2023-06-14T06:11:09;6.40;;;3.80;;
17488;SDS011;8861;52.644;4.734;2023-06-14T06:13:36;4.80;;;3.30;;
17488;SDS011;8861;52.644;4.734;2023-06-14T06:16:05;5.53;;;3.10;;
17488;SDS011;8861;52.644;4.734;2023-06-14T06:18:32;5.30;;;3.30;;
17488;SDS011;8861;52.644;4.734;2023-06-14T06:20:59;5.77;;;3.77;;
17488;SDS011;8861;52.644;4.734;2023-06-14T06:23:28;6.70;;;3.43;;
17488;SDS011;8861;52.644;4.734;2023-06-14T06:25:55;3.77;;;3.13;;
17488;SDS011;8861;52.644;4.734;2023-06-14T06:28:21;4.00;;;3.00;;
17488;SDS011;8861;52.644;4.734;2023-06-14T06:30:48;3.80;;;3.00;;
17488;SDS011;8861;52.644;4.734;2023-06-14T06:33:17;4.07;;;3.20;;
17488;SDS011;8861;52.644;4.734;2023-06-14T06:35:44;5.27;;;3.00;;
17488;SDS011;8861;52.644;4.734;2023-06-14T06:38:11;4.80;;;3.60;;
17488;SDS011;8861;52.644;4.734;2023-06-14T06:40:38;3.43;;;3.00;;
17488;SDS011;8861;52.644;4.734;2023-06-14T06:43:05;4.13;;;3.10;;
17488;SDS011;8861;52.644;4.734;2023-06-14T06:45:32;4.47;;;3.30;;
17488;SDS011;8861;52.644;4.734;2023-06-14T06:47:59;4.13;;;3.40;;
17488;SDS011;8861;52.644;4.734;2023-06-14T06:50:27;4.77;;;3.20;;
17488;SDS011;8861;52.644;4.734;2023-06-14T06:52:54;7.13;;;3.77;;
17488;SDS011;8861;52.644;4.734;2023-06-14T06:55:21;6.77;;;3.30;;
17488;SDS011;8861;52.644;4.734;2023-06-14T06:57:48;6.77;;;3.80;;
17488;SDS011;8861;52.644;4.734;2023-06-14T07:00:17;3.43;;;3.13;;
17488;SDS011;8861;52.644;4.734;2023-06-14T07:02:45;6.60;;;3.73;;
17488;SDS011;8861;52.644;4.734;2023-06-14T07:05:12;5.00;;;3.63;;
17488;SDS011;8861;52.644;4.734;2023-06-14T07:07:40;4.17;;;3.53;;
17488;SDS011;8861;52.644;4.734;2023-06-14T07:10:07;4.33;;;3.50;;
17488;SDS011;8861;52.644;4.734;2023-06-14T07:12:34;7.17;;;3.77;;
17488;SDS011;8861;52.644;4.734;2023-06-14T07:15:04;8.00;;;3.80;;
17488;SDS011;8861;52.644;4.734;2023-06-14T07:17:32;8.07;;;3.57;;
17488;SDS011;8861;52.644;4.734;2023-06-14T07:20:01;5.43;;;4.07;;
17488;SDS011;8861;52.644;4.734;2023-06-14T07:22:37;6.20;;;3.97;;
17488;SDS011;8861;52.644;4.734;2023-06-14T07:25:08;5.27;;;3.90;;
17488;SDS011;8861;52.644;4.734;2023-06-14T07:27:37;5.40;;;3.87;;
17488;SDS011;8861;52.644;4.734;2023-06-14T07:30:05;5.27;;;3.67;;
17488;SDS011;8861;52.644;4.734;2023-06-14T07:32:33;5.83;;;3.80;;
17488;SDS011;8861;52.644;4.734;2023-06-14T07:35:00;5.10;;;3.90;;
17488;SDS011;8861;52.644;4.734;2023-06-14T07:37:28;5.63;;;4.10;;
17488;SDS011;8861;52.644;4.734;2023-06-14T07:39:56;4.73;;;4.00;;
17488;SDS011;8861;52.644;4.734;2023-06-14T07:42:23;4.50;;;3.77;;
17488;SDS011;8861;52.644;4.734;2023-06-14T07:44:50;6.47;;;4.00;;
17488;SDS011;8861;52.644;4.734;2023-06-14T07:47:17;4.67;;;3.87;;
17488;SDS011;8861;52.644;4.734;2023-06-14T07:49:44;5.23;;;3.90;;
17488;SDS011;8861;52.644;4.734;2023-06-14T07:52:11;5.93;;;4.10;;
17488;SDS011;8861;52.644;4.734;2023-06-14T07:54:38;3.90;;;3.20;;
17488;SDS011;8861;52.644;4.734;2023-06-14T07:57:07;4.30;;;3.40;;
17488;SDS011;8861;52.644;4.734;2023-06-14T07:59:34;6.80;;;4.10;;
17488;SDS011;8861;52.644;4.734;2023-06-14T08:02:01;5.23;;;3.70;;
17488;SDS011;8861;52.644;4.734;2023-06-14T08:04:29;4.27;;;3.87;;
17488;SDS011;8861;52.644;4.734;2023-06-14T08:06:56;6.40;;;4.40;;
17488;SDS011;8861;52.644;4.734;2023-06-14T08:09:23;5.50;;;4.00;;
17488;SDS011;8861;52.644;4.734;2023-06-14T08:11:50;5.53;;;4.10;;
17488;SDS011;8861;52.644;4.734;2023-06-14T08:14:18;7.10;;;4.57;;
17488;SDS011;8861;52.644;4.734;2023-06-14T08:16:45;5.00;;;4.10;;
17488;SDS011;8861;52.644;4.734;2023-06-14T08:19:12;4.73;;;3.87;;
17488;SDS011;8861;52.644;4.734;2023-06-14T08:21:41;7.57;;;4.00;;
17488;SDS011;8861;52.644;4.734;2023-06-14T08:24:08;4.90;;;4.00;;
17488;SDS011;8861;52.644;4.734;2023-06-14T08:26:37;7.80;;;4.03;;
17488;SDS011;8861;52.644;4.734;2023-06-14T08:29:04;7.73;;;4.17;;
17488;SDS011;8861;52.644;4.734;2023-06-14T08:31:33;5.03;;;3.80;;
17488;SDS011;8861;52.644;4.734;2023-06-14T08:34:00;9.23;;;4.07;;
17488;SDS011;8861;52.644;4.734;2023-06-14T08:36:27;6.93;;;3.80;;
17488;SDS011;8861;52.644;4.734;2023-06-14T08:38:54;6.30;;;3.90;;
17488;SDS011;8861;52.644;4.734;2023-06-14T08:41:21;4.47;;;3.87;;
17488;SDS011;8861;52.644;4.734;2023-06-14T08:43:49;6.00;;;4.20;;
17488;SDS011;8861;52.644;4.734;2023-06-14T08:46:17;6.33;;;4.07;;
17488;SDS011;8861;52.644;4.734;2023-06-14T08:48:48;6.27;;;4.27;;
17488;SDS011;8861;52.644;4.734;2023-06-14T08:51:16;6.77;;;4.37;;
17488;SDS011;8861;52.644;4.734;2023-06-14T08:53:46;4.90;;;4.20;;
17488;SDS011;8861;52.644;4.734;2023-06-14T08:56:18;5.63;;;4.10;;
17488;SDS011;8861;52.644;4.734;2023-06-14T08:58:47;5.60;;;3.60;;
17488;SDS011;8861;52.644;4.734;2023-06-14T09:01:15;4.80;;;3.80;;
17488;SDS011;8861;52.644;4.734;2023-06-14T09:03:42;4.73;;;3.80;;
17488;SDS011;8861;52.644;4.734;2023-06-14T09:06:11;10.27;;;3.70;;
17488;SDS011;8861;52.644;4.734;2023-06-14T09:08:40;5.17;;;3.80;;
17488;SDS011;8861;52.644;4.734;2023-06-14T09:11:09;6.70;;;3.87;;
17488;SDS011;8861;52.644;4.734;2023-06-14T09:13:37;5.53;;;3.70;;
17488;SDS011;8861;52.644;4.734;2023-06-14T09:16:04;5.17;;;3.63;;
17488;SDS011;8861;52.644;4.734;2023-06-14T09:18:35;7.07;;;3.67;;
17488;SDS011;8861;52.644;4.734;2023-06-14T09:21:03;5.10;;;3.77;;
17488;SDS011;8861;52.644;4.734;2023-06-14T09:23:34;5.67;;;3.10;;
17488;SDS011;8861;52.644;4.734;2023-06-14T09:26:07;5.70;;;3.60;;
17488;SDS011;8861;52.644;4.734;2023-06-14T09:28:34;4.80;;;3.40;;
17488;SDS011;8861;52.644;4.734;2023-06-14T09:31:01;4.63;;;3.20;;
17488;SDS011;8861;52.644;4.734;2023-06-14T09:33:28;3.67;;;3.00;;
17488;SDS011;8861;52.644;4.734;2023-06-14T09:35:57;3.90;;;3.23;;
17488;SDS011;8861;52.644;4.734;2023-06-14T09:38:24;3.93;;;3.20;;
17488;SDS011;8861;52.644;4.734;2023-06-14T09:40:53;3.60;;;3.00;;
17488;SDS011;8861;52.644;4.734;2023-06-14T09:43:22;4.40;;;3.10;;
17488;SDS011;8861;52.644;4.734;2023-06-14T09:45:51;4.30;;;2.80;;
17488;SDS011;8861;52.644;4.734;2023-06-14T09:48:18;3.90;;;3.00;;
17488;SDS011;8861;52.644;4.734;2023-06-14T09:50:45;3.30;;;3.00;;
17488;SDS011;8861;52.644;4.734;2023-06-14T09:53:13;4.50;;;3.10;;
17488;SDS011;8861;52.644;4.734;2023-06-14T09:55:42;5.83;;;3.00;;
17488;SDS011;8861;52.644;4.734;2023-06-14T09:58:11;4.97;;;2.90;;
17488;SDS011;8861;52.644;4.734;2023-06-14T10:00:42;3.47;;;2.80;;
17488;SDS011;8861;52.644;4.734;2023-06-14T10:03:12;3.63;;;2.63;;
17488;SDS011;8861;52.644;4.734;2023-06-14T10:05:41;3.30;;;2.70;;
17488;SDS011;8861;52.644;4.734;2023-06-14T10:08:11;5.20;;;2.73;;
17488;SDS011;8861;52.644;4.734;2023-06-14T10:10:42;3.90;;;2.70;;
17488;SDS011;8861;52.644;4.734;2023-06-14T10:13:09;4.03;;;2.90;;
17488;SDS011;8861;52.644;4.734;2023-06-14T10:15:41;3.07;;;2.60;;
17488;SDS011;8861;52.644;4.734;2023-06-14T10:18:16;3.27;;;2.97;;
17488;SDS011;8861;52.644;4.734;2023-06-14T10:20:51;3.10;;;2.50;;
17488;SDS011;8861;52.644;4.734;2023-06-14T10:23:24;4.77;;;2.70;;
17488;SDS011;8861;52.644;4.734;2023-06-14T10:25:54;3.80;;;2.30;;
17488;SDS011;8861;52.644;4.734;2023-06-14T10:28:23;3.90;;;2.50;;
17488;SDS011;8861;52.644;4.734;2023-06-14T10:33:34;6.23;;;2.70;;
17488;SDS011;8861;52.644;4.734;2023-06-14T10:38:58;4.10;;;2.80;;
17488;SDS011;8861;52.644;4.734;2023-06-14T10:41:27;3.17;;;2.43;;
17488;SDS011;8861;52.644;4.734;2023-06-14T10:47:23;5.40;;;2.90;;
17488;SDS011;8861;52.644;4.734;2023-06-14T10:49:52;4.20;;;2.70;;
17488;SDS011;8861;52.644;4.734;2023-06-14T10:52:23;3.40;;;2.90;;
17488;SDS011;8861;52.644;4.734;2023-06-14T10:55:02;4.13;;;2.87;;
17488;SDS011;8861;52.644;4.734;2023-06-14T10:57:36;4.87;;;2.70;;
17488;SDS011;8861;52.644;4.734;2023-06-14T11:00:05;4.07;;;2.83;;
17488;SDS011;8861;52.644;4.734;2023-06-14T11:02:51;4.07;;;2.67;;
17488;SDS011;8861;52.644;4.734;2023-06-14T11:05:40;3.90;;;3.00;;
17488;SDS011;8861;52.644;4.734;2023-06-14T11:08:18;3.33;;;2.70;;
17488;SDS011;8861;52.644;4.734;2023-06-14T11:11:12;2.87;;;2.60;;
17488;SDS011;8861;52.644;4.734;2023-06-14T11:13:41;3.97;;;2.83;;
17488;SDS011;8861;52.644;4.734;2023-06-14T11:16:10;6.80;;;2.80;;
17488;SDS011;8861;52.644;4.734;2023-06-14T11:18:39;4.70;;;2.77;;
17488;SDS011;8861;52.644;4.734;2023-06-14T11:21:07;6.80;;;2.70;;
17488;SDS011;8861;52.644;4.734;2023-06-14T11:23:34;3.30;;;2.50;;
17488;SDS011;8861;52.644;4.734;2023-06-14T11:26:01;3.00;;;2.70;;
17488;SDS011;8861;52.644;4.734;2023-06-14T11:28:35;4.90;;;2.57;;
17488;SDS011;8861;52.644;4.734;2023-06-14T11:31:03;2.87;;;2.40;;
17488;SDS011;8861;52.644;4.734;2023-06-14T11:33:30;3.17;;;2.33;;
17488;SDS011;8861;52.644;4.734;2023-06-14T11:36:01;3.07;;;2.50;;
17488;SDS011;8861;52.644;4.734;2023-06-14T11:38:28;3.90;;;2.57;;
17488;SDS011;8861;52.644;4.734;2023-06-14T11:40:58;5.73;;;2.57;;
17488;SDS011;8861;52.644;4.734;2023-06-14T11:43:25;2.43;;;2.23;;
17488;SDS011;8861;52.644;4.734;2023-06-14T11:45:52;5.87;;;2.57;;
17488;SDS011;8861;52.644;4.734;2023-06-14T11:48:19;3.60;;;2.33;;
17488;SDS011;8861;52.644;4.734;2023-06-14T11:50:49;2.30;;;2.10;;
17488;SDS011;8861;52.644;4.734;2023-06-14T11:53:18;2.60;;;2.10;;
17488;SDS011;8861;52.644;4.734;2023-06-14T11:55:45;2.93;;;2.10;;
17488;SDS011;8861;52.644;4.734;2023-06-14T11:58:12;4.97;;;2.30;;
17488;SDS011;8861;52.644;4.734;2023-06-14T12:00:40;2.90;;;2.40;;
17488;SDS011;8861;52.644;4.734;2023-06-14T12:03:08;6.30;;;2.23;;
17488;SDS011;8861;52.644;4.734;2023-06-14T12:05:35;2.50;;;2.30;;
17488;SDS011;8861;52.644;4.734;2023-06-14T12:08:03;2.80;;;2.20;;
17488;SDS011;8861;52.644;4.734;2023-06-14T12:10:40;2.97;;;2.33;;
17488;SDS011;8861;52.644;4.734;2023-06-14T12:13:09;3.90;;;2.30;;
17488;SDS011;8861;52.644;4.734;2023-06-14T12:15:36;3.70;;;2.20;;
17488;SDS011;8861;52.644;4.734;2023-06-14T12:18:04;2.97;;;1.93;;
17488;SDS011;8861;52.644;4.734;2023-06-14T12:20:33;5.77;;;2.00;;
17488;SDS011;8861;52.644;4.734;2023-06-14T12:23:02;3.37;;;2.00;;
17488;SDS011;8861;52.644;4.734;2023-06-14T12:25:30;2.83;;;1.63;;
17488;SDS011;8861;52.644;4.734;2023-06-14T12:28:03;3.30;;;1.90;;
17488;SDS011;8861;52.644;4.734;2023-06-14T12:30:31;4.85;;;1.77;;
17488;SDS011;8861;52.644;4.734;2023-06-14T12:32:58;3.30;;;1.75;;
17488;SDS011;8861;52.644;4.734;2023-06-14T12:35:25;1.90;;;1.50;;
17488;SDS011;8861;52.644;4.734;2023-06-14T12:37:52;1.67;;;1.40;;
17488;SDS011;8861;52.644;4.734;2023-06-14T12:40:19;2.20;;;1.60;;
17488;SDS011;8861;52.644;4.734;2023-06-14T12:42:46;3.53;;;1.50;;
17488;SDS011;8861;52.644;4.734;2023-06-14T12:45:14;4.25;;;1.60;;
17488;SDS011;8861;52.644;4.734;2023-06-14T12:47:42;2.03;;;1.67;;
17488;SDS011;8861;52.644;4.734;2023-06-14T12:50:09;1.85;;;1.50;;
17488;SDS011;8861;52.644;4.734;2023-06-14T12:52:36;3.57;;;1.90;;
17488;SDS011;8861;52.644;4.734;2023-06-14T12:55:03;3.20;;;1.63;;
17488;SDS011;8861;52.644;4.734;2023-06-14T12:57:31;2.47;;;2.00;;
17488;SDS011;8861;52.644;4.734;2023-06-14T13:00:01;3.47;;;2.00;;
17488;SDS011;8861;52.644;4.734;2023-06-14T13:02:32;3.23;;;2.00;;
17488;SDS011;8861;52.644;4.734;2023-06-14T13:04:59;4.07;;;2.00;;
17488;SDS011;8861;52.644;4.734;2023-06-14T13:07:28;2.50;;;2.20;;
17488;SDS011;8861;52.644;4.734;2023-06-14T13:09:55;4.80;;;2.00;;
17488;SDS011;8861;52.644;4.734;2023-06-14T13:12:22;3.07;;;2.00;;
17488;SDS011;8861;52.644;4.734;2023-06-14T13:14:49;4.37;;;1.93;;
17488;SDS011;8861;52.644;4.734;2023-06-14T13:17:16;2.40;;;2.00;;
17488;SDS011;8861;52.644;4.734;2023-06-14T13:19:44;2.50;;;2.30;;
17488;SDS011;8861;52.644;4.734;2023-06-14T13:22:11;2.40;;;2.20;;
17488;SDS011;8861;52.644;4.734;2023-06-14T13:24:38;4.50;;;2.00;;
17488;SDS011;8861;52.644;4.734;2023-06-14T13:27:05;1.90;;;1.80;;
17488;SDS011;8861;52.644;4.734;2023-06-14T13:29:32;4.47;;;2.30;;
17488;SDS011;8861;52.644;4.734;2023-06-14T13:32:00;2.90;;;2.23;;
17488;SDS011;8861;52.644;4.734;2023-06-14T13:34:27;3.60;;;2.40;;
17488;SDS011;8861;52.644;4.734;2023-06-14T13:36:56;2.53;;;2.33;;
17488;SDS011;8861;52.644;4.734;2023-06-14T13:39:24;4.57;;;2.30;;
17488;SDS011;8861;52.644;4.734;2023-06-14T13:41:51;2.37;;;2.17;;
17488;SDS011;8861;52.644;4.734;2023-06-14T13:44:18;3.77;;;2.23;;
17488;SDS011;8861;52.644;4.734;2023-06-14T13:46:46;3.40;;;2.00;;
17488;SDS011;8861;52.644;4.734;2023-06-14T13:49:13;3.80;;;2.13;;
17488;SDS011;8861;52.644;4.734;2023-06-14T13:51:43;3.63;;;2.10;;
17488;SDS011;8861;52.644;4.734;2023-06-14T13:54:12;2.37;;;2.00;;
17488;SDS011;8861;52.644;4.734;2023-06-14T13:56:40;2.00;;;1.80;;
17488;SDS011;8861;52.644;4.734;2023-06-14T13:59:07;2.83;;;1.97;;
17488;SDS011;8861;52.644;4.734;2023-06-14T14:01:34;3.97;;;2.30;;
17488;SDS011;8861;52.644;4.734;2023-06-14T14:04:01;3.60;;;2.30;;
17488;SDS011;8861;52.644;4.734;2023-06-14T14:06:28;2.30;;;2.10;;
17488;SDS011;8861;52.644;4.734;2023-06-14T14:08:55;3.03;;;2.07;;
17488;SDS011;8861;52.644;4.734;2023-06-14T14:11:23;2.50;;;1.93;;
17488;SDS011;8861;52.644;4.734;2023-06-14T14:13:50;3.17;;;1.77;;
17488;SDS011;8861;52.644;4.734;2023-06-14T14:16:17;1.73;;;1.60;;
17488;SDS011;8861;52.644;4.734;2023-06-14T14:18:45;2.50;;;1.87;;
17488;SDS011;8861;52.644;4.734;2023-06-14T14:21:12;1.63;;;1.40;;
17488;SDS011;8861;52.644;4.734;2023-06-14T14:23:39;1.77;;;1.67;;
17488;SDS011;8861;52.644;4.734;2023-06-14T14:26:07;1.60;;;1.40;;
17488;SDS011;8861;52.644;4.734;2023-06-14T14:28:36;2.57;;;1.70;;
17488;SDS011;8861;52.644;4.734;2023-06-14T14:31:03;2.00;;;1.80;;
17488;SDS011;8861;52.644;4.734;2023-06-14T14:33:30;2.47;;;1.80;;
17488;SDS011;8861;52.644;4.734;2023-06-14T14:35:56;1.83;;;1.70;;
17488;SDS011;8861;52.644;4.734;2023-06-14T14:38:28;2.13;;;1.60;;
17488;SDS011;8861;52.644;4.734;2023-06-14T14:40:55;1.50;;;1.40;;
17488;SDS011;8861;52.644;4.734;2023-06-14T14:43:22;2.53;;;1.30;;
17488;SDS011;8861;52.644;4.734;2023-06-14T14:45:50;1.60;;;1.47;;
17488;SDS011;8861;52.644;4.734;2023-06-14T14:48:17;1.70;;;1.30;;
17488;SDS011;8861;52.644;4.734;2023-06-14T14:50:44;1.08;;;1.02;;
17488;SDS011;8861;52.644;4.734;2023-06-14T14:53:11;1.50;;;1.30;;
17488;SDS011;8861;52.644;4.734;2023-06-14T14:55:41;3.70;;;1.50;;
17488;SDS011;8861;52.644;4.734;2023-06-14T14:58:09;1.58;;;1.40;;
17488;SDS011;8861;52.644;4.734;2023-06-14T15:00:35;1.80;;;1.40;;
17488;SDS011;8861;52.644;4.734;2023-06-14T15:03:04;1.55;;;1.30;;
17488;SDS011;8861;52.644;4.734;2023-06-14T15:05:31;1.60;;;1.50;;
17488;SDS011;8861;52.644;4.734;2023-06-14T15:07:58;3.17;;;1.30;;
17488;SDS011;8861;52.644;4.734;2023-06-14T15:10:25;1.60;;;1.50;;
17488;SDS011;8861;52.644;4.734;2023-06-14T15:12:52;2.30;;;1.37;;
17488;SDS011;8861;52.644;4.734;2023-06-14T15:15:19;1.42;;;1.25;;